KPGA/PGA METAR and TAF weather

Enter ICAO airport designator
Station Type Date Time Source
KPGA METAR 2019/09/20 08:53 UTC NOAA

KPGA 200853Z AUTO 19007KT 10SM CLR 21/M07 A2982 RMK AO2 SLP027 T02061067 53008 TSNO


Station Type Date Time Source
KPGA Decoded METAR 2019/09/20 08:53 UTC NOAA

PAGE MUNICIPAL AIRPORT, AZ, United States (KPGA) 36-56N 111-27W 1307M
Sep 20, 2019 - 04:53 AM EDT / 2019.09.20 0853 UTC
Wind: from the S (190 degrees) at 8 MPH (7 KT):0
Visibility: 10 mile(s):0
Sky conditions: clear
Temperature: 69.1 F (20.6 C)
Dew Point: 19.9 F (-6.7 C)
Relative Humidity: 15%
Pressure (altimeter): 29.82 in. Hg (1009 hPa)
Pressure tendency: 0.02 inches (0.8 hPa) higher than three hours ago
ob: KPGA 200853Z AUTO 19007KT 10SM CLR 21/M07 A2982 RMK AO2 SLP027 T02061067 53008 TSNO
cycle: 9

Station Type Date Time Source
KPGA TAF 2019/09/20 06:24 UTC NOAA

TAF KPGA 200521Z 2006/2106 21008KT P6SM FEW120
FM201700 30010G20KT P6SM SKC
FM210100 VRB06KT P6SM SKC

Example: see airport list